sensor_id;sensor_type;location;lat;lon;timestamp;P1;durP1;ratioP1;P2;durP2;ratioP2
37645;SDS011;23489;49.600;6.138;2023-07-22T00:02:17;5.78;;;4.38;;
37645;SDS011;23489;49.600;6.138;2023-07-22T00:04:42;5.60;;;4.70;;
37645;SDS011;23489;49.600;6.138;2023-07-22T00:07:08;6.73;;;5.07;;
37645;SDS011;23489;49.600;6.138;2023-07-22T00:09:34;6.13;;;4.97;;
37645;SDS011;23489;49.600;6.138;2023-07-22T00:12:00;5.80;;;4.50;;
37645;SDS011;23489;49.600;6.138;2023-07-22T00:14:26;5.57;;;4.65;;
37645;SDS011;23489;49.600;6.138;2023-07-22T00:16:51;6.30;;;4.80;;
37645;SDS011;23489;49.600;6.138;2023-07-22T00:19:17;6.95;;;4.60;;
37645;SDS011;23489;49.600;6.138;2023-07-22T00:21:43;6.20;;;4.40;;
37645;SDS011;23489;49.600;6.138;2023-07-22T00:24:09;6.10;;;4.80;;
37645;SDS011;23489;49.600;6.138;2023-07-22T00:26:35;5.97;;;4.80;;
37645;SDS011;23489;49.600;6.138;2023-07-22T00:29:01;5.40;;;4.85;;
37645;SDS011;23489;49.600;6.138;2023-07-22T00:31:27;6.80;;;5.00;;
37645;SDS011;23489;49.600;6.138;2023-07-22T00:33:53;6.07;;;4.80;;
37645;SDS011;23489;49.600;6.138;2023-07-22T00:36:19;5.60;;;4.53;;
37645;SDS011;23489;49.600;6.138;2023-07-22T00:38:44;5.22;;;4.32;;
37645;SDS011;23489;49.600;6.138;2023-07-22T00:41:10;5.40;;;4.18;;
37645;SDS011;23489;49.600;6.138;2023-07-22T00:43:36;6.40;;;4.10;;
37645;SDS011;23489;49.600;6.138;2023-07-22T00:46:03;5.57;;;4.50;;
37645;SDS011;23489;49.600;6.138;2023-07-22T00:48:29;5.18;;;4.22;;
37645;SDS011;23489;49.600;6.138;2023-07-22T00:50:55;6.85;;;5.10;;
37645;SDS011;23489;49.600;6.138;2023-07-22T00:53:20;6.27;;;5.37;;
37645;SDS011;23489;49.600;6.138;2023-07-22T00:55:46;7.80;;;6.20;;
37645;SDS011;23489;49.600;6.138;2023-07-22T00:58:12;6.47;;;5.78;;
37645;SDS011;23489;49.600;6.138;2023-07-22T01:00:38;6.50;;;5.43;;
37645;SDS011;23489;49.600;6.138;2023-07-22T01:03:03;6.20;;;5.20;;
37645;SDS011;23489;49.600;6.138;2023-07-22T01:05:29;7.10;;;5.87;;
37645;SDS011;23489;49.600;6.138;2023-07-22T01:07:56;6.35;;;5.20;;
37645;SDS011;23489;49.600;6.138;2023-07-22T01:10:22;7.03;;;5.13;;
37645;SDS011;23489;49.600;6.138;2023-07-22T01:12:48;7.88;;;4.88;;
37645;SDS011;23489;49.600;6.138;2023-07-22T01:15:13;6.88;;;5.22;;
37645;SDS011;23489;49.600;6.138;2023-07-22T01:17:39;6.40;;;4.97;;
37645;SDS011;23489;49.600;6.138;2023-07-22T01:20:06;6.40;;;5.22;;
37645;SDS011;23489;49.600;6.138;2023-07-22T01:22:33;5.82;;;5.05;;
37645;SDS011;23489;49.600;6.138;2023-07-22T01:24:59;6.82;;;5.32;;
37645;SDS011;23489;49.600;6.138;2023-07-22T01:27:26;6.83;;;5.50;;
37645;SDS011;23489;49.600;6.138;2023-07-22T01:29:51;5.95;;;5.25;;
37645;SDS011;23489;49.600;6.138;2023-07-22T01:32:17;7.00;;;5.67;;
37645;SDS011;23489;49.600;6.138;2023-07-22T01:34:43;6.57;;;5.40;;
37645;SDS011;23489;49.600;6.138;2023-07-22T01:37:09;6.00;;;5.10;;
37645;SDS011;23489;49.600;6.138;2023-07-22T01:39:35;5.60;;;5.00;;
37645;SDS011;23489;49.600;6.138;2023-07-22T01:42:01;9.17;;;5.13;;
37645;SDS011;23489;49.600;6.138;2023-07-22T01:44:27;5.93;;;4.80;;
37645;SDS011;23489;49.600;6.138;2023-07-22T01:46:53;6.03;;;4.67;;
37645;SDS011;23489;49.600;6.138;2023-07-22T01:49:18;7.18;;;5.35;;
37645;SDS011;23489;49.600;6.138;2023-07-22T01:51:44;8.13;;;4.77;;
37645;SDS011;23489;49.600;6.138;2023-07-22T01:54:10;5.88;;;4.78;;
37645;SDS011;23489;49.600;6.138;2023-07-22T01:56:37;6.30;;;5.00;;
37645;SDS011;23489;49.600;6.138;2023-07-22T01:59:04;6.40;;;5.00;;
37645;SDS011;23489;49.600;6.138;2023-07-22T02:01:31;6.20;;;4.70;;
37645;SDS011;23489;49.600;6.138;2023-07-22T02:03:57;7.03;;;5.20;;
37645;SDS011;23489;49.600;6.138;2023-07-22T02:06:22;6.43;;;4.80;;
37645;SDS011;23489;49.600;6.138;2023-07-22T02:08:49;6.22;;;5.30;;
37645;SDS011;23489;49.600;6.138;2023-07-22T02:11:14;7.23;;;5.57;;
37645;SDS011;23489;49.600;6.138;2023-07-22T02:13:41;7.60;;;5.35;;
37645;SDS011;23489;49.600;6.138;2023-07-22T02:16:06;7.78;;;5.80;;
37645;SDS011;23489;49.600;6.138;2023-07-22T02:18:32;9.60;;;6.35;;
37645;SDS011;23489;49.600;6.138;2023-07-22T02:20:58;6.70;;;5.40;;
37645;SDS011;23489;49.600;6.138;2023-07-22T02:23:23;6.95;;;5.53;;
37645;SDS011;23489;49.600;6.138;2023-07-22T02:25:50;7.28;;;5.68;;
37645;SDS011;23489;49.600;6.138;2023-07-22T02:28:17;8.13;;;5.93;;
37645;SDS011;23489;49.600;6.138;2023-07-22T02:30:48;7.20;;;5.72;;
37645;SDS011;23489;49.600;6.138;2023-07-22T02:33:15;5.78;;;5.00;;
37645;SDS011;23489;49.600;6.138;2023-07-22T02:35:41;5.88;;;4.90;;
37645;SDS011;23489;49.600;6.138;2023-07-22T02:38:07;6.95;;;5.03;;
37645;SDS011;23489;49.600;6.138;2023-07-22T02:40:39;7.18;;;4.95;;
37645;SDS011;23489;49.600;6.138;2023-07-22T02:43:05;5.65;;;4.90;;
37645;SDS011;23489;49.600;6.138;2023-07-22T02:45:32;6.72;;;5.00;;
37645;SDS011;23489;49.600;6.138;2023-07-22T02:48:01;8.02;;;5.50;;
37645;SDS011;23489;49.600;6.138;2023-07-22T02:50:26;7.43;;;5.47;;
37645;SDS011;23489;49.600;6.138;2023-07-22T02:52:52;8.13;;;5.47;;
37645;SDS011;23489;49.600;6.138;2023-07-22T02:55:18;5.78;;;4.80;;
37645;SDS011;23489;49.600;6.138;2023-07-22T02:57:44;7.15;;;5.32;;
37645;SDS011;23489;49.600;6.138;2023-07-22T03:00:14;7.18;;;5.45;;
37645;SDS011;23489;49.600;6.138;2023-07-22T03:02:51;7.03;;;5.47;;
37645;SDS011;23489;49.600;6.138;2023-07-22T03:05:26;5.93;;;5.10;;
37645;SDS011;23489;49.600;6.138;2023-07-22T03:07:55;7.50;;;5.10;;
37645;SDS011;23489;49.600;6.138;2023-07-22T03:10:21;7.13;;;5.53;;
37645;SDS011;23489;49.600;6.138;2023-07-22T03:12:46;6.23;;;4.80;;
37645;SDS011;23489;49.600;6.138;2023-07-22T03:15:12;6.20;;;4.95;;
37645;SDS011;23489;49.600;6.138;2023-07-22T03:17:38;7.70;;;5.00;;
37645;SDS011;23489;49.600;6.138;2023-07-22T03:20:07;6.88;;;5.25;;
37645;SDS011;23489;49.600;6.138;2023-07-22T03:22:39;6.20;;;5.18;;
37645;SDS011;23489;49.600;6.138;2023-07-22T03:25:06;6.10;;;5.50;;
37645;SDS011;23489;49.600;6.138;2023-07-22T03:27:34;5.97;;;4.93;;
37645;SDS011;23489;49.600;6.138;2023-07-22T03:30:00;6.03;;;5.25;;
37645;SDS011;23489;49.600;6.138;2023-07-22T03:32:27;6.22;;;5.18;;
37645;SDS011;23489;49.600;6.138;2023-07-22T03:34:52;5.72;;;4.72;;
37645;SDS011;23489;49.600;6.138;2023-07-22T03:37:18;6.83;;;5.50;;
37645;SDS011;23489;49.600;6.138;2023-07-22T03:39:45;6.57;;;5.18;;
37645;SDS011;23489;49.600;6.138;2023-07-22T03:42:11;6.77;;;5.23;;
37645;SDS011;23489;49.600;6.138;2023-07-22T03:44:36;6.45;;;5.20;;
37645;SDS011;23489;49.600;6.138;2023-07-22T03:47:02;6.53;;;5.00;;
37645;SDS011;23489;49.600;6.138;2023-07-22T03:49:28;6.20;;;4.80;;
37645;SDS011;23489;49.600;6.138;2023-07-22T03:51:53;6.23;;;5.00;;
37645;SDS011;23489;49.600;6.138;2023-07-22T03:54:19;6.57;;;5.10;;
37645;SDS011;23489;49.600;6.138;2023-07-22T03:56:44;7.75;;;5.18;;
37645;SDS011;23489;49.600;6.138;2023-07-22T03:59:10;5.75;;;5.10;;
37645;SDS011;23489;49.600;6.138;2023-07-22T04:01:36;7.10;;;5.30;;
37645;SDS011;23489;49.600;6.138;2023-07-22T04:04:01;6.45;;;5.00;;
37645;SDS011;23489;49.600;6.138;2023-07-22T04:06:27;6.93;;;5.10;;
37645;SDS011;23489;49.600;6.138;2023-07-22T04:08:52;6.83;;;5.30;;
37645;SDS011;23489;49.600;6.138;2023-07-22T04:11:18;5.80;;;5.20;;
37645;SDS011;23489;49.600;6.138;2023-07-22T04:13:44;5.57;;;4.97;;
37645;SDS011;23489;49.600;6.138;2023-07-22T04:16:09;6.50;;;4.97;;
37645;SDS011;23489;49.600;6.138;2023-07-22T04:18:35;6.23;;;5.10;;
37645;SDS011;23489;49.600;6.138;2023-07-22T04:21:00;7.03;;;4.93;;
37645;SDS011;23489;49.600;6.138;2023-07-22T04:23:26;7.05;;;5.47;;
37645;SDS011;23489;49.600;6.138;2023-07-22T04:25:52;6.00;;;5.22;;
37645;SDS011;23489;49.600;6.138;2023-07-22T04:28:18;7.97;;;5.38;;
37645;SDS011;23489;49.600;6.138;2023-07-22T04:30:53;5.68;;;4.97;;
37645;SDS011;23489;49.600;6.138;2023-07-22T04:33:26;6.35;;;5.07;;
37645;SDS011;23489;49.600;6.138;2023-07-22T04:35:57;7.40;;;4.70;;
37645;SDS011;23489;49.600;6.138;2023-07-22T04:38:24;7.07;;;5.18;;
37645;SDS011;23489;49.600;6.138;2023-07-22T04:40:49;6.50;;;5.10;;
37645;SDS011;23489;49.600;6.138;2023-07-22T04:43:15;5.30;;;4.80;;
37645;SDS011;23489;49.600;6.138;2023-07-22T04:45:43;5.68;;;5.07;;
37645;SDS011;23489;49.600;6.138;2023-07-22T04:48:09;6.90;;;4.93;;
37645;SDS011;23489;49.600;6.138;2023-07-22T04:50:36;7.83;;;4.97;;
37645;SDS011;23489;49.600;6.138;2023-07-22T04:53:02;6.07;;;5.07;;
37645;SDS011;23489;49.600;6.138;2023-07-22T04:55:28;6.20;;;5.03;;
37645;SDS011;23489;49.600;6.138;2023-07-22T04:57:55;8.75;;;5.10;;
37645;SDS011;23489;49.600;6.138;2023-07-22T05:00:20;6.68;;;5.15;;
37645;SDS011;23489;49.600;6.138;2023-07-22T05:02:47;6.28;;;5.15;;
37645;SDS011;23489;49.600;6.138;2023-07-22T05:05:13;6.72;;;4.88;;
37645;SDS011;23489;49.600;6.138;2023-07-22T05:07:39;7.72;;;5.05;;
37645;SDS011;23489;49.600;6.138;2023-07-22T05:10:05;7.78;;;5.10;;
37645;SDS011;23489;49.600;6.138;2023-07-22T05:12:32;7.45;;;5.20;;
37645;SDS011;23489;49.600;6.138;2023-07-22T05:14:57;6.77;;;5.37;;
37645;SDS011;23489;49.600;6.138;2023-07-22T05:17:23;6.75;;;5.10;;
37645;SDS011;23489;49.600;6.138;2023-07-22T05:19:50;7.10;;;5.28;;
37645;SDS011;23489;49.600;6.138;2023-07-22T05:22:16;6.63;;;4.97;;
37645;SDS011;23489;49.600;6.138;2023-07-22T05:24:41;5.68;;;4.70;;
37645;SDS011;23489;49.600;6.138;2023-07-22T05:27:07;6.53;;;4.90;;
37645;SDS011;23489;49.600;6.138;2023-07-22T05:29:33;8.05;;;5.13;;
37645;SDS011;23489;49.600;6.138;2023-07-22T05:31:58;8.17;;;5.03;;
37645;SDS011;23489;49.600;6.138;2023-07-22T05:34:24;7.30;;;5.30;;
37645;SDS011;23489;49.600;6.138;2023-07-22T05:36:50;8.40;;;5.00;;
37645;SDS011;23489;49.600;6.138;2023-07-22T05:39:15;5.95;;;4.88;;
37645;SDS011;23489;49.600;6.138;2023-07-22T05:41:43;7.10;;;5.38;;
37645;SDS011;23489;49.600;6.138;2023-07-22T05:44:08;6.70;;;4.85;;
37645;SDS011;23489;49.600;6.138;2023-07-22T05:46:34;8.43;;;5.70;;
37645;SDS011;23489;49.600;6.138;2023-07-22T05:49:00;8.95;;;5.85;;
37645;SDS011;23489;49.600;6.138;2023-07-22T05:51:25;8.63;;;6.43;;
37645;SDS011;23489;49.600;6.138;2023-07-22T05:53:51;7.45;;;6.05;;
37645;SDS011;23489;49.600;6.138;2023-07-22T05:56:17;10.93;;;5.93;;
37645;SDS011;23489;49.600;6.138;2023-07-22T05:58:42;8.23;;;6.03;;
37645;SDS011;23489;49.600;6.138;2023-07-22T06:01:08;8.43;;;6.00;;
37645;SDS011;23489;49.600;6.138;2023-07-22T06:03:34;7.72;;;5.68;;
37645;SDS011;23489;49.600;6.138;2023-07-22T06:05:59;10.53;;;5.47;;
37645;SDS011;23489;49.600;6.138;2023-07-22T06:08:25;8.07;;;5.33;;
37645;SDS011;23489;49.600;6.138;2023-07-22T06:10:51;9.45;;;5.63;;
37645;SDS011;23489;49.600;6.138;2023-07-22T06:13:17;9.38;;;5.22;;
37645;SDS011;23489;49.600;6.138;2023-07-22T06:15:42;8.50;;;5.53;;
37645;SDS011;23489;49.600;6.138;2023-07-22T06:18:08;12.00;;;6.20;;
37645;SDS011;23489;49.600;6.138;2023-07-22T06:20:34;9.50;;;5.97;;
37645;SDS011;23489;49.600;6.138;2023-07-22T06:23:01;8.40;;;5.45;;
37645;SDS011;23489;49.600;6.138;2023-07-22T06:25:27;8.40;;;5.90;;
37645;SDS011;23489;49.600;6.138;2023-07-22T06:27:53;8.63;;;5.20;;
37645;SDS011;23489;49.600;6.138;2023-07-22T06:30:19;10.80;;;5.30;;
37645;SDS011;23489;49.600;6.138;2023-07-22T06:52:11;7.65;;;5.05;;
37645;SDS011;23489;49.600;6.138;2023-07-22T07:31:05;7.13;;;4.35;;
37645;SDS011;23489;49.600;6.138;2023-07-22T07:33:30;9.18;;;4.35;;
37645;SDS011;23489;49.600;6.138;2023-07-22T07:35:56;5.05;;;3.85;;
37645;SDS011;23489;49.600;6.138;2023-07-22T07:38:22;7.35;;;4.82;;
37645;SDS011;23489;49.600;6.138;2023-07-22T07:40:51;6.00;;;4.70;;
37645;SDS011;23489;49.600;6.138;2023-07-22T07:43:18;5.25;;;4.28;;
37645;SDS011;23489;49.600;6.138;2023-07-22T07:45:43;5.83;;;4.60;;
37645;SDS011;23489;49.600;6.138;2023-07-22T07:48:09;5.27;;;4.33;;
37645;SDS011;23489;49.600;6.138;2023-07-22T07:50:34;6.35;;;4.80;;
37645;SDS011;23489;49.600;6.138;2023-07-22T07:53:00;6.40;;;4.47;;
37645;SDS011;23489;49.600;6.138;2023-07-22T07:55:25;6.95;;;3.95;;
37645;SDS011;23489;49.600;6.138;2023-07-22T07:57:51;6.15;;;4.32;;
37645;SDS011;23489;49.600;6.138;2023-07-22T08:10:00;7.03;;;4.00;;
37645;SDS011;23489;49.600;6.138;2023-07-22T08:12:26;4.47;;;3.80;;
37645;SDS011;23489;49.600;6.138;2023-07-22T08:14:52;4.15;;;3.47;;
37645;SDS011;23489;49.600;6.138;2023-07-22T08:17:18;4.78;;;3.67;;
37645;SDS011;23489;49.600;6.138;2023-07-22T08:19:44;8.52;;;3.67;;
37645;SDS011;23489;49.600;6.138;2023-07-22T08:22:09;4.00;;;3.47;;
37645;SDS011;23489;49.600;6.138;2023-07-22T08:24:35;4.30;;;3.33;;
37645;SDS011;23489;49.600;6.138;2023-07-22T08:27:01;7.60;;;3.75;;
37645;SDS011;23489;49.600;6.138;2023-07-22T08:29:27;7.03;;;3.50;;
37645;SDS011;23489;49.600;6.138;2023-07-22T08:31:52;4.53;;;3.67;;
37645;SDS011;23489;49.600;6.138;2023-07-22T08:34:18;7.57;;;3.97;;
37645;SDS011;23489;49.600;6.138;2023-07-22T08:36:43;6.27;;;4.10;;
37645;SDS011;23489;49.600;6.138;2023-07-22T08:39:09;4.30;;;3.67;;
37645;SDS011;23489;49.600;6.138;2023-07-22T08:41:35;6.23;;;3.93;;
37645;SDS011;23489;49.600;6.138;2023-07-22T08:44:02;6.00;;;3.95;;
37645;SDS011;23489;49.600;6.138;2023-07-22T08:46:30;5.90;;;4.07;;
37645;SDS011;23489;49.600;6.138;2023-07-22T08:49:01;8.65;;;3.40;;
37645;SDS011;23489;49.600;6.138;2023-07-22T08:51:29;5.68;;;2.90;;
37645;SDS011;23489;49.600;6.138;2023-07-22T08:53:57;5.47;;;3.50;;
37645;SDS011;23489;49.600;6.138;2023-07-22T08:56:24;4.20;;;3.47;;
37645;SDS011;23489;49.600;6.138;2023-07-22T08:58:51;5.63;;;3.85;;
37645;SDS011;23489;49.600;6.138;2023-07-22T09:01:20;5.95;;;3.60;;
37645;SDS011;23489;49.600;6.138;2023-07-22T09:03:46;9.60;;;3.50;;
37645;SDS011;23489;49.600;6.138;2023-07-22T09:06:13;6.05;;;3.78;;
37645;SDS011;23489;49.600;6.138;2023-07-22T09:08:39;6.55;;;3.78;;
37645;SDS011;23489;49.600;6.138;2023-07-22T09:11:05;4.35;;;3.70;;
37645;SDS011;23489;49.600;6.138;2023-07-22T09:13:31;5.70;;;3.58;;
37645;SDS011;23489;49.600;6.138;2023-07-22T09:15:58;7.85;;;3.95;;
37645;SDS011;23489;49.600;6.138;2023-07-22T09:18:25;6.07;;;3.90;;
37645;SDS011;23489;49.600;6.138;2023-07-22T09:20:51;5.53;;;3.70;;
37645;SDS011;23489;49.600;6.138;2023-07-22T09:23:17;4.60;;;3.72;;
37645;SDS011;23489;49.600;6.138;2023-07-22T09:25:42;4.40;;;3.80;;
37645;SDS011;23489;49.600;6.138;2023-07-22T09:28:08;4.00;;;3.60;;
37645;SDS011;23489;49.600;6.138;2023-07-22T09:30:35;5.90;;;3.47;;
37645;SDS011;23489;49.600;6.138;2023-07-22T09:33:04;6.53;;;4.00;;
37645;SDS011;23489;49.600;6.138;2023-07-22T09:35:44;4.68;;;3.80;;
37645;SDS011;23489;49.600;6.138;2023-07-22T09:38:11;5.10;;;3.67;;
37645;SDS011;23489;49.600;6.138;2023-07-22T09:40:36;9.50;;;4.40;;
37645;SDS011;23489;49.600;6.138;2023-07-22T09:43:06;4.03;;;3.47;;
37645;SDS011;23489;49.600;6.138;2023-07-22T09:45:34;6.13;;;3.50;;
37645;SDS011;23489;49.600;6.138;2023-07-22T09:50:26;7.22;;;3.85;;
37645;SDS011;23489;49.600;6.138;2023-07-22T09:52:53;4.70;;;3.95;;
37645;SDS011;23489;49.600;6.138;2023-07-22T10:29:55;11.02;;;4.07;;
37645;SDS011;23489;49.600;6.138;2023-07-22T10:32:20;7.00;;;3.90;;
37645;SDS011;23489;49.600;6.138;2023-07-22T10:34:46;6.85;;;4.20;;
37645;SDS011;23489;49.600;6.138;2023-07-22T10:37:12;4.00;;;3.60;;
37645;SDS011;23489;49.600;6.138;2023-07-22T10:39:37;4.78;;;3.45;;
37645;SDS011;23489;49.600;6.138;2023-07-22T10:42:04;5.68;;;3.83;;
37645;SDS011;23489;49.600;6.138;2023-07-22T10:44:30;3.88;;;3.13;;
37645;SDS011;23489;49.600;6.138;2023-07-22T10:52:11;4.43;;;3.60;;
37645;SDS011;23489;49.600;6.138;2023-07-22T10:54:38;6.68;;;3.22;;
37645;SDS011;23489;49.600;6.138;2023-07-22T10:57:22;5.05;;;3.28;;
37645;SDS011;23489;49.600;6.138;2023-07-22T10:59:52;5.47;;;3.35;;
37645;SDS011;23489;49.600;6.138;2023-07-22T11:02:27;6.43;;;3.55;;
37645;SDS011;23489;49.600;6.138;2023-07-22T11:04:57;5.55;;;3.35;;
37645;SDS011;23489;49.600;6.138;2023-07-22T11:07:34;6.55;;;3.40;;
37645;SDS011;23489;49.600;6.138;2023-07-22T11:10:11;4.03;;;3.35;;
37645;SDS011;23489;49.600;6.138;2023-07-22T11:12:42;4.95;;;3.60;;
37645;SDS011;23489;49.600;6.138;2023-07-22T11:15:09;10.63;;;3.53;;
37645;SDS011;23489;49.600;6.138;2023-07-22T11:17:35;4.13;;;3.40;;
37645;SDS011;23489;49.600;6.138;2023-07-22T11:20:02;6.38;;;3.58;;
37645;SDS011;23489;49.600;6.138;2023-07-22T11:22:28;4.63;;;3.20;;
37645;SDS011;23489;49.600;6.138;2023-07-22T11:24:56;5.22;;;3.63;;
37645;SDS011;23489;49.600;6.138;2023-07-22T11:27:25;7.43;;;4.03;;
37645;SDS011;23489;49.600;6.138;2023-07-22T11:29:51;5.00;;;3.67;;
37645;SDS011;23489;49.600;6.138;2023-07-22T11:32:17;4.53;;;3.30;;
37645;SDS011;23489;49.600;6.138;2023-07-22T11:34:46;9.83;;;3.60;;
37645;SDS011;23489;49.600;6.138;2023-07-22T11:37:12;9.82;;;3.92;;
37645;SDS011;23489;49.600;6.138;2023-07-22T11:39:38;5.20;;;3.40;;
37645;SDS011;23489;49.600;6.138;2023-07-22T11:42:06;6.68;;;3.67;;
37645;SDS011;23489;49.600;6.138;2023-07-22T11:44:32;6.43;;;4.07;;
37645;SDS011;23489;49.600;6.138;2023-07-22T11:46:59;9.52;;;3.90;;
37645;SDS011;23489;49.600;6.138;2023-07-22T11:49:32;7.55;;;4.00;;
37645;SDS011;23489;49.600;6.138;2023-07-22T11:52:02;5.67;;;3.93;;
37645;SDS011;23489;49.600;6.138;2023-07-22T11:54:30;7.72;;;3.95;;
37645;SDS011;23489;49.600;6.138;2023-07-22T11:56:57;6.03;;;3.75;;
37645;SDS011;23489;49.600;6.138;2023-07-22T11:59:35;6.93;;;3.45;;
37645;SDS011;23489;49.600;6.138;2023-07-22T12:02:04;7.03;;;3.63;;
37645;SDS011;23489;49.600;6.138;2023-07-22T12:04:31;4.88;;;3.50;;
37645;SDS011;23489;49.600;6.138;2023-07-22T12:06:58;6.93;;;3.83;;
37645;SDS011;23489;49.600;6.138;2023-07-22T12:09:24;7.07;;;4.30;;
37645;SDS011;23489;49.600;6.138;2023-07-22T12:12:00;4.70;;;3.50;;
37645;SDS011;23489;49.600;6.138;2023-07-22T12:14:33;9.98;;;3.80;;
37645;SDS011;23489;49.600;6.138;2023-07-22T12:17:00;5.03;;;3.67;;
37645;SDS011;23489;49.600;6.138;2023-07-22T12:19:27;8.45;;;3.78;;
37645;SDS011;23489;49.600;6.138;2023-07-22T12:21:54;4.57;;;3.42;;
37645;SDS011;23489;49.600;6.138;2023-07-22T12:24:19;8.13;;;3.70;;
37645;SDS011;23489;49.600;6.138;2023-07-22T12:26:45;7.15;;;3.70;;
37645;SDS011;23489;49.600;6.138;2023-07-22T12:29:10;4.68;;;3.63;;
37645;SDS011;23489;49.600;6.138;2023-07-22T12:31:36;5.20;;;3.60;;
37645;SDS011;23489;49.600;6.138;2023-07-22T12:34:01;4.72;;;3.63;;
37645;SDS011;23489;49.600;6.138;2023-07-22T12:36:27;4.28;;;3.70;;
37645;SDS011;23489;49.600;6.138;2023-07-22T12:38:53;5.73;;;3.57;;
37645;SDS011;23489;49.600;6.138;2023-07-22T12:41:18;4.30;;;3.70;;
37645;SDS011;23489;49.600;6.138;2023-07-22T12:43:44;6.73;;;3.77;;
37645;SDS011;23489;49.600;6.138;2023-07-22T12:46:10;14.97;;;4.13;;
37645;SDS011;23489;49.600;6.138;2023-07-22T12:48:35;5.90;;;3.70;;
37645;SDS011;23489;49.600;6.138;2023-07-22T12:51:01;5.43;;;3.78;;
37645;SDS011;23489;49.600;6.138;2023-07-22T12:53:27;5.93;;;3.58;;
37645;SDS011;23489;49.600;6.138;2023-07-22T12:55:53;4.90;;;3.80;;
37645;SDS011;23489;49.600;6.138;2023-07-22T12:58:18;5.90;;;3.80;;
37645;SDS011;23489;49.600;6.138;2023-07-22T13:00:44;5.22;;;3.75;;
37645;SDS011;23489;49.600;6.138;2023-07-22T13:03:10;4.38;;;3.55;;
37645;SDS011;23489;49.600;6.138;2023-07-22T13:05:35;4.68;;;3.60;;
37645;SDS011;23489;49.600;6.138;2023-07-22T13:08:01;4.95;;;3.58;;
37645;SDS011;23489;49.600;6.138;2023-07-22T13:10:27;4.00;;;3.47;;
37645;SDS011;23489;49.600;6.138;2023-07-22T13:12:54;7.10;;;3.80;;
37645;SDS011;23489;49.600;6.138;2023-07-22T13:15:20;6.35;;;3.90;;
37645;SDS011;23489;49.600;6.138;2023-07-22T13:17:46;5.55;;;3.80;;
37645;SDS011;23489;49.600;6.138;2023-07-22T13:20:11;5.78;;;3.85;;
37645;SDS011;23489;49.600;6.138;2023-07-22T13:22:40;6.10;;;4.05;;
37645;SDS011;23489;49.600;6.138;2023-07-22T13:25:05;4.33;;;3.87;;
37645;SDS011;23489;49.600;6.138;2023-07-22T13:27:31;5.20;;;4.05;;
37645;SDS011;23489;49.600;6.138;2023-07-22T13:29:57;5.73;;;4.10;;
37645;SDS011;23489;49.600;6.138;2023-07-22T13:32:23;5.50;;;4.17;;
37645;SDS011;23489;49.600;6.138;2023-07-22T13:34:49;5.20;;;3.58;;
37645;SDS011;23489;49.600;6.138;2023-07-22T13:37:14;6.13;;;3.50;;
37645;SDS011;23489;49.600;6.138;2023-07-22T13:39:40;4.53;;;3.50;;
37645;SDS011;23489;49.600;6.138;2023-07-22T13:42:05;4.90;;;3.42;;
37645;SDS011;23489;49.600;6.138;2023-07-22T13:44:31;4.45;;;3.60;;
37645;SDS011;23489;49.600;6.138;2023-07-22T13:46:57;4.60;;;3.50;;
37645;SDS011;23489;49.600;6.138;2023-07-22T13:49:22;9.03;;;3.90;;
37645;SDS011;23489;49.600;6.138;2023-07-22T13:51:48;7.27;;;3.80;;
37645;SDS011;23489;49.600;6.138;2023-07-22T13:54:13;7.40;;;3.50;;
37645;SDS011;23489;49.600;6.138;2023-07-22T13:56:39;5.13;;;3.70;;
37645;SDS011;23489;49.600;6.138;2023-07-22T13:59:05;7.03;;;3.63;;
37645;SDS011;23489;49.600;6.138;2023-07-22T14:01:31;4.90;;;3.80;;
37645;SDS011;23489;49.600;6.138;2023-07-22T14:03:58;4.25;;;3.70;;
37645;SDS011;23489;49.600;6.138;2023-07-22T14:06:23;4.88;;;3.38;;
37645;SDS011;23489;49.600;6.138;2023-07-22T14:08:49;4.57;;;3.60;;
37645;SDS011;23489;49.600;6.138;2023-07-22T14:11:14;4.65;;;3.30;;
37645;SDS011;23489;49.600;6.138;2023-07-22T14:13:40;6.40;;;3.63;;
37645;SDS011;23489;49.600;6.138;2023-07-22T14:16:06;5.72;;;3.50;;
37645;SDS011;23489;49.600;6.138;2023-07-22T14:18:31;7.55;;;3.78;;
37645;SDS011;23489;49.600;6.138;2023-07-22T14:20:58;7.72;;;3.90;;
37645;SDS011;23489;49.600;6.138;2023-07-22T14:23:24;8.45;;;3.83;;
37645;SDS011;23489;49.600;6.138;2023-07-22T14:25:49;7.43;;;4.00;;
37645;SDS011;23489;49.600;6.138;2023-07-22T14:28:15;5.40;;;3.70;;
37645;SDS011;23489;49.600;6.138;2023-07-22T14:30:40;6.87;;;3.73;;
37645;SDS011;23489;49.600;6.138;2023-07-22T14:33:06;5.13;;;3.43;;
37645;SDS011;23489;49.600;6.138;2023-07-22T14:35:31;8.97;;;3.50;;
37645;SDS011;23489;49.600;6.138;2023-07-22T14:38:00;22.73;;;4.97;;
37645;SDS011;23489;49.600;6.138;2023-07-22T14:40:26;5.43;;;3.63;;
37645;SDS011;23489;49.600;6.138;2023-07-22T14:42:51;4.78;;;3.50;;
37645;SDS011;23489;49.600;6.138;2023-07-22T14:45:17;7.10;;;3.63;;
37645;SDS011;23489;49.600;6.138;2023-07-22T14:47:43;9.45;;;4.18;;
37645;SDS011;23489;49.600;6.138;2023-07-22T14:50:08;5.20;;;3.72;;
37645;SDS011;23489;49.600;6.138;2023-07-22T14:52:35;4.47;;;3.65;;
37645;SDS011;23489;49.600;6.138;2023-07-22T14:55:00;5.53;;;3.47;;
37645;SDS011;23489;49.600;6.138;2023-07-22T14:57:26;5.78;;;3.85;;
37645;SDS011;23489;49.600;6.138;2023-07-22T14:59:54;5.07;;;3.75;;
37645;SDS011;23489;49.600;6.138;2023-07-22T15:02:20;4.85;;;3.75;;
37645;SDS011;23489;49.600;6.138;2023-07-22T15:33:54;5.60;;;2.88;;
37645;SDS011;23489;49.600;6.138;2023-07-22T15:38:45;9.32;;;3.13;;
37645;SDS011;23489;49.600;6.138;2023-07-22T15:41:11;6.80;;;3.45;;
37645;SDS011;23489;49.600;6.138;2023-07-22T15:43:36;7.85;;;3.40;;
37645;SDS011;23489;49.600;6.138;2023-07-22T15:46:02;5.68;;;3.20;;
37645;SDS011;23489;49.600;6.138;2023-07-22T17:35:20;7.80;;;3.00;;
37645;SDS011;23489;49.600;6.138;2023-07-22T17:37:46;4.05;;;2.80;;
37645;SDS011;23489;49.600;6.138;2023-07-22T17:47:30;4.03;;;3.17;;
37645;SDS011;23489;49.600;6.138;2023-07-22T17:49:56;5.60;;;3.30;;
37645;SDS011;23489;49.600;6.138;2023-07-22T17:52:22;4.63;;;3.10;;
37645;SDS011;23489;49.600;6.138;2023-07-22T17:57:13;5.45;;;3.47;;
37645;SDS011;23489;49.600;6.138;2023-07-22T17:59:39;4.82;;;3.03;;
37645;SDS011;23489;49.600;6.138;2023-07-22T18:02:05;3.45;;;2.97;;
37645;SDS011;23489;49.600;6.138;2023-07-22T18:04:32;3.97;;;3.20;;
37645;SDS011;23489;49.600;6.138;2023-07-22T18:06:58;11.50;;;3.25;;
37645;SDS011;23489;49.600;6.138;2023-07-22T18:09:24;5.53;;;3.03;;
37645;SDS011;23489;49.600;6.138;2023-07-22T18:11:49;5.63;;;3.10;;
37645;SDS011;23489;49.600;6.138;2023-07-22T18:14:17;6.22;;;3.72;;
37645;SDS011;23489;49.600;6.138;2023-07-22T18:16:42;4.10;;;2.75;;
37645;SDS011;23489;49.600;6.138;2023-07-22T18:19:08;4.88;;;2.85;;
37645;SDS011;23489;49.600;6.138;2023-07-22T18:21:35;4.45;;;3.42;;
37645;SDS011;23489;49.600;6.138;2023-07-22T18:24:00;4.53;;;3.00;;
37645;SDS011;23489;49.600;6.138;2023-07-22T18:26:26;4.95;;;3.30;;
37645;SDS011;23489;49.600;6.138;2023-07-22T18:28:52;6.85;;;3.00;;
37645;SDS011;23489;49.600;6.138;2023-07-22T18:31:17;4.30;;;2.92;;
37645;SDS011;23489;49.600;6.138;2023-07-22T18:33:46;5.65;;;3.25;;
37645;SDS011;23489;49.600;6.138;2023-07-22T18:36:13;7.15;;;2.88;;
37645;SDS011;23489;49.600;6.138;2023-07-22T18:38:38;5.30;;;2.90;;
37645;SDS011;23489;49.600;6.138;2023-07-22T18:41:04;4.45;;;3.15;;
37645;SDS011;23489;49.600;6.138;2023-07-22T18:48:20;3.80;;;3.03;;
37645;SDS011;23489;49.600;6.138;2023-07-22T18:50:46;6.22;;;3.10;;
37645;SDS011;23489;49.600;6.138;2023-07-22T18:53:19;4.38;;;3.00;;
37645;SDS011;23489;49.600;6.138;2023-07-22T18:55:44;6.68;;;3.35;;
37645;SDS011;23489;49.600;6.138;2023-07-22T18:58:10;8.00;;;3.35;;
37645;SDS011;23489;49.600;6.138;2023-07-22T19:00:35;5.78;;;2.95;;
37645;SDS011;23489;49.600;6.138;2023-07-22T19:03:01;6.78;;;3.30;;
37645;SDS011;23489;49.600;6.138;2023-07-22T19:05:27;4.97;;;3.10;;